Time;durP1;ratioP1;P1;durP2;ratioP2;P2;SDS_P1;SDS_P2;PMS_P1;PMS_P2;Temp;Humidity;BMP_temperature;BMP_pressure;BME280_temperature;BME280_humidity;BME280_pressure;Samples;Min_cycle;Max_cycle;Signal;HPM_P1;HPM_P2
2022/09/09 15:09:53;;;;;;;4.28;2.98;;;;;;;25.89;56.94;100116.55;1512068;85;25241;-87
2022/09/09 15:12:20;;;;;;;5.42;3.50;;;;;;;25.35;58.89;100111.08;1482535;88;21507;-87
2022/09/09 15:14:46;;;;;;;4.60;3.33;;;;;;;24.98;59.55;100115.19;1482788;87;21405;-85
2022/09/09 15:17:13;;;;;;;3.40;3.10;;;;;;;24.58;61.89;100114.61;1475426;88;21543;-86
2022/09/09 15:19:39;;;;;;;3.60;3.30;;;;;;;24.45;61.89;100117.92;1459718;89;21567;-87
2022/09/09 15:22:06;;;;;;;7.70;3.77;;;;;;;24.40;62.87;100122.39;1469744;88;21558;-87
2022/09/09 15:24:33;;;;;;;5.72;4.00;;;;;;;24.32;63.57;100127.70;1487204;87;21484;-87
2022/09/09 15:27:01;;;;;;;7.55;3.67;;;;;;;24.32;64.20;100133.92;1472065;87;21521;-86
2022/09/09 15:29:28;;;;;;;6.53;4.30;;;;;;;24.33;64.40;100130.14;1473050;87;21450;-86
2022/09/09 15:31:57;;;;;;;8.33;4.65;;;;;;;24.24;65.37;100123.51;1467361;88;22847;-86
2022/09/09 15:34:24;;;;;;;9.00;4.08;;;;;;;24.24;65.70;100131.63;1480252;88;21407;-86
2022/09/09 15:36:55;;;;;;;11.63;4.45;;;;;;;24.17;65.58;100139.08;1487632;87;21338;-84
2022/09/09 15:39:21;;;;;;;5.15;3.87;;;;;;;24.15;65.97;100133.62;1466380;88;21570;-84
2022/09/09 15:42:02;;;;;;;6.47;4.33;;;;;;;24.04;65.93;100142.91;1468099;85;22684;-84
2022/09/09 15:44:28;;;;;;;6.83;4.47;;;;;;;23.97;66.67;100148.19;1444175;89;21496;-85
2022/09/09 15:46:54;;;;;;;7.28;3.83;;;;;;;23.82;67.53;100155.45;1451255;89;21378;-86
2022/09/09 15:49:25;;;;;;;9.28;4.55;;;;;;;23.73;68.28;100150.97;1440796;86;21436;-84
2022/09/09 15:51:58;;;;;;;8.10;4.03;;;;;;;23.56;68.89;100157.66;1430483;91;21422;-83
2022/09/09 15:54:26;;;;;;;5.25;4.08;;;;;;;23.50;69.04;100169.93;1429624;91;21473;-80
2022/09/09 15:56:56;;;;;;;6.00;3.87;;;;;;;23.45;69.29;100163.91;1436562;89;21622;-79
2022/09/09 15:59:24;;;;;;;13.40;4.40;;;;;;;23.39;69.66;100157.59;1441481;89;21586;-80
2022/09/09 16:01:51;;;;;;;14.20;5.70;;;;;;;23.30;70.49;100148.72;1436479;89;21563;-80
2022/09/09 16:04:23;;;;;;;4.75;3.27;;;;;;;23.24;70.69;100145.09;1434854;89;21555;-80
2022/09/09 16:06:49;;;;;;;5.78;4.00;;;;;;;23.14;71.69;100147.59;1450431;89;22367;-80
2022/09/09 16:09:18;;;;;;;8.58;3.60;;;;;;;23.03;72.22;100144.38;1437079;89;21470;-79
2022/09/09 16:11:44;;;;;;;8.43;3.27;;;;;;;22.93;72.78;100148.97;1427097;89;21452;-80
2022/09/09 16:14:11;;;;;;;8.78;3.80;;;;;;;22.82;72.90;100144.43;1451902;89;21489;-80
2022/09/09 16:16:37;;;;;;;4.30;3.90;;;;;;;22.70;73.50;100143.90;1442281;89;21430;-80
2022/09/09 16:19:07;;;;;;;11.80;4.87;;;;;;;22.59;73.95;100140.67;1424681;89;22619;-79
2022/09/09 16:21:39;;;;;;;4.58;3.90;;;;;;;22.52;74.40;100146.69;1444395;91;21444;-80
2022/09/09 16:24:08;;;;;;;10.82;4.60;;;;;;;22.46;74.96;100140.88;1434656;91;21437;-80
2022/09/09 16:26:38;;;;;;;12.58;4.70;;;;;;;22.42;75.42;100144.57;1427603;91;22355;-80
2022/09/09 16:29:05;;;;;;;7.92;4.95;;;;;;;22.41;75.72;100145.64;1433623;91;21548;-80
2022/09/09 16:31:32;;;;;;;7.03;3.85;;;;;;;22.35;76.09;100135.75;1430576;91;22047;-79
2022/09/09 16:33:59;;;;;;;13.98;4.78;;;;;;;22.30;76.06;100143.73;1432357;91;21519;-80
2022/09/09 16:36:30;;;;;;;9.03;4.28;;;;;;;22.21;76.30;100138.36;1438975;89;21406;-79
2022/09/09 16:38:59;;;;;;;6.22;4.25;;;;;;;22.07;76.74;100128.30;1430794;91;21558;-80
2022/09/09 16:41:27;;;;;;;6.60;5.05;;;;;;;22.00;76.70;100131.08;1422807;91;21451;-80
2022/09/09 16:43:57;;;;;;;7.30;4.80;;;;;;;21.93;77.92;100133.59;1412523;92;21495;-81
2022/09/09 16:46:23;;;;;;;6.90;4.92;;;;;;;21.88;78.09;100136.96;1433780;89;21515;-81
2022/09/09 16:48:51;;;;;;;5.00;4.33;;;;;;;21.82;78.97;100133.84;1427006;89;22377;-80
2022/09/09 16:51:23;;;;;;;6.70;4.97;;;;;;;21.72;79.33;100145.17;1413430;91;21551;-79
2022/09/09 16:53:49;;;;;;;7.90;4.72;;;;;;;21.63;79.83;100147.33;1419041;90;21607;-80
2022/09/09 16:56:26;;;;;;;8.03;4.50;;;;;;;21.57;80.33;100153.63;1415380;90;21629;-78
2022/09/09 16:58:56;;;;;;;7.17;4.40;;;;;;;21.42;80.84;100138.39;1409574;90;21600;-79
2022/09/09 17:01:24;;;;;;;5.15;4.35;;;;;;;21.42;80.84;100138.39;1347634;91;22781;-80
2022/09/09 17:03:58;;;;;;;5.90;4.47;;;;;;;21.42;81.53;100151.03;1495289;90;22411;-78
2022/09/09 17:06:25;;;;;;;11.25;3.90;;;;;;;21.37;81.76;100146.31;1420389;90;21689;-79
2022/09/09 17:08:58;;;;;;;6.03;5.03;;;;;;;21.35;81.69;100144.36;1414111;90;21680;-78
2022/09/09 17:11:29;;;;;;;5.92;5.03;;;;;;;21.29;82.87;100146.58;1412620;91;21615;-79
2022/09/09 17:14:00;;;;;;;6.33;4.95;;;;;;;21.24;83.08;100155.87;1415528;91;21600;-79
2022/09/09 17:16:30;;;;;;;9.88;4.97;;;;;;;21.22;83.40;100162.00;1495271;91;21659;-80
2022/09/09 17:18:58;;;;;;;8.05;5.55;;;;;;;21.17;83.25;100160.78;1353311;91;21534;-78
2022/09/09 17:21:27;;;;;;;7.15;4.92;;;;;;;21.17;83.05;100162.13;1409280;91;21504;-82
2022/09/09 17:23:55;;;;;;;9.85;4.83;;;;;;;21.14;84.09;100163.11;1416680;91;22368;-79
2022/09/09 17:26:26;;;;;;;10.35;5.58;;;;;;;21.08;84.92;100167.51;1416842;91;21377;-80
2022/09/09 17:28:54;;;;;;;8.15;5.10;;;;;;;21.07;84.54;100169.91;1414797;91;21560;-79
2022/09/09 17:31:20;;;;;;;5.20;4.67;;;;;;;21.06;84.60;100170.97;1421878;91;21663;-88
2022/09/09 17:33:49;;;;;;;6.47;5.03;;;;;;;21.02;85.53;100176.47;1425736;91;21555;-82
2022/09/09 17:36:19;;;;;;;12.18;6.67;;;;;;;20.98;85.32;100178.50;1369416;91;21741;-82
2022/09/09 17:38:46;;;;;;;;;;;;;;;20.96;85.38;100184.09;1428281;91;21549;-83
2022/09/09 17:41:18;;;;;;;8.40;5.35;;;;;;;20.90;87.15;100187.67;1411422;91;20407;-81
2022/09/09 17:43:44;;;;;;;11.78;4.97;;;;;;;20.83;85.49;100185.05;1410795;91;22317;-82
2022/09/09 17:46:31;;;;;;;5.35;4.85;;;;;;;20.80;85.65;100181.95;1407383;91;21687;-82
2022/09/09 17:49:00;;;;;;;7.55;5.70;;;;;;;20.76;86.93;100183.45;1409719;91;21703;-82
2022/09/09 17:51:32;;;;;;;11.10;5.25;;;;;;;20.70;87.67;100182.47;1343927;92;21581;-82
2022/09/09 17:54:02;;;;;;;7.25;4.72;;;;;;;20.65;88.18;100183.64;1488362;92;22207;-81
2022/09/09 17:56:33;;;;;;;;;;;;;;;20.60;88.94;100184.31;1344894;91;21386;-81
2022/09/09 17:59:02;;;;;;;8.95;4.67;;;;;;;20.56;89.97;100178.23;1488536;92;20342;-82
2022/09/09 18:01:32;;;;;;;7.17;5.03;;;;;;;20.54;88.76;100177.10;1338965;91;21608;-80
2022/09/09 18:04:00;;;;;;;;;;;;;;;20.53;89.56;100173.30;1470602;92;22391;-81
2022/09/09 18:06:31;;;;;;;7.78;4.80;;;;;;;20.47;90.59;100173.09;1345045;92;20942;-81
2022/09/09 18:09:04;;;;;;;5.25;4.75;;;;;;;20.45;90.23;100173.01;1339194;92;21548;-80
2022/09/09 18:11:37;;;;;;;8.63;5.95;;;;;;;20.41;91.32;100175.84;1487882;91;21364;-81
2022/09/09 18:14:04;;;;;;;6.95;5.22;;;;;;;20.38;90.75;100183.00;1366242;92;21717;-84
2022/09/09 18:16:36;;;;;;;6.28;5.67;;;;;;;20.40;90.72;100179.55;1408165;92;21481;-80
2022/09/09 18:19:10;;;;;;;9.83;6.15;;;;;;;20.37;90.83;100177.30;1408544;91;22033;-82
2022/09/09 18:21:39;;;;;;;9.78;6.67;;;;;;;20.35;91.34;100176.72;1406608;91;21717;-80
2022/09/09 18:24:07;;;;;;;8.00;6.45;;;;;;;20.32;91.96;100182.53;1406354;92;21644;-82
2022/09/09 18:26:35;;;;;;;15.98;6.90;;;;;;;20.27;92.07;100183.17;1411583;91;21724;-80
2022/09/09 18:29:06;;;;;;;7.35;6.70;;;;;;;20.25;91.80;100183.41;1339698;92;21585;-82
2022/09/09 18:31:32;;;;;;;;;;;;;;;20.22;92.73;100183.81;1484906;91;21416;-81
2022/09/09 18:34:02;;;;;;;11.08;5.65;;;;;;;20.14;93.98;100181.91;1472168;91;20272;-81
2022/09/09 18:36:36;;;;;;;7.37;5.53;;;;;;;20.11;92.58;100175.13;1409633;92;21662;-82
2022/09/09 18:39:05;;;;;;;10.15;6.20;;;;;;;20.10;92.55;100177.48;1404702;91;21633;-80
2022/09/09 18:41:36;;;;;;;8.75;5.50;;;;;;;20.09;92.93;100173.17;1343351;91;21563;-81
2022/09/09 18:44:15;;;;;;;6.12;5.50;;;;;;;20.02;94.15;100171.02;1337013;93;21430;-80
2022/09/09 18:46:42;;;;;;;8.98;5.95;;;;;;;19.98;94.63;100173.84;1487940;91;21342;-80
2022/09/09 18:49:14;;;;;;;9.15;6.10;;;;;;;19.98;93.80;100175.19;1340151;92;21541;-80
2022/09/09 18:51:39;;;;;;;5.87;5.37;;;;;;;19.98;93.58;100181.91;1480964;92;22101;-81
2022/09/09 18:54:12;;;;;;;7.72;5.62;;;;;;;19.95;93.35;100175.63;1338580;91;21431;-82
2022/09/09 18:56:38;;;;;;;8.50;5.33;;;;;;;19.88;94.41;100181.53;1488309;91;21312;-83
2022/09/09 18:59:07;;;;;;;11.08;5.83;;;;;;;19.79;95.37;100179.13;1340858;91;21379;-82
2022/09/09 19:01:37;;;;;;;7.22;6.03;;;;;;;19.77;94.35;100183.88;1344006;91;21364;-82
2022/09/09 19:04:05;;;;;;;10.58;6.75;;;;;;;19.76;94.32;100180.86;1338397;92;21527;-81
2022/09/09 19:06:33;;;;;;;17.77;6.80;;;;;;;19.74;94.52;100182.95;1339260;92;21534;-83
2022/09/09 19:08:59;;;;;;;15.25;6.80;;;;;;;19.70;94.53;100180.38;1338882;91;21386;-83
2022/09/09 19:11:27;;;;;;;10.03;6.15;;;;;;;19.67;95.29;100178.12;1346349;91;21423;-82
2022/09/09 19:13:58;;;;;;;6.12;5.53;;;;;;;19.62;95.75;100175.22;1488312;92;22327;-83
2022/09/09 19:16:27;;;;;;;6.67;6.08;;;;;;;19.59;96.16;100179.67;1338747;91;21549;-80
2022/09/09 19:18:57;;;;;;;7.35;6.65;;;;;;;19.49;97.67;100177.45;1337949;91;21527;-82
2022/09/09 19:21:27;;;;;;;13.65;5.70;;;;;;;19.43;97.29;100178.30;1343140;91;21445;-81
2022/09/09 19:23:58;;;;;;;7.30;6.37;;;;;;;19.42;96.74;100181.17;1337482;92;21401;-80
2022/09/09 19:26:31;;;;;;;6.15;5.55;;;;;;;19.41;97.19;100179.54;1488428;92;21504;-80
2022/09/09 19:28:58;;;;;;;10.08;6.05;;;;;;;19.41;98.08;100179.54;1406016;92;21534;-80
2022/09/09 19:31:26;;;;;;;7.10;6.28;;;;;;;19.43;98.42;100184.19;1345762;91;21349;-80
2022/09/09 19:33:54;;;;;;;7.78;6.47;;;;;;;19.42;98.46;100176.66;1339054;91;21520;-80
2022/09/09 19:36:21;;;;;;;12.33;6.35;;;;;;;19.43;98.17;100184.19;1339475;91;21667;-80
2022/09/09 19:38:48;;;;;;;7.53;6.35;;;;;;;19.47;98.16;100186.22;1483684;92;21522;-82
2022/09/09 19:41:22;;;;;;;7.87;5.87;;;;;;;19.46;98.00;100175.71;1478687;91;22399;-81
2022/09/09 19:43:49;;;;;;;11.45;6.03;;;;;;;19.41;98.20;100176.34;1487791;92;21486;-81
2022/09/09 19:46:19;;;;;;;10.82;6.47;;;;;;;19.37;98.72;100171.92;1449067;91;21622;-81
2022/09/09 19:48:46;;;;;;;;;;;;;;;19.33;99.21;100172.05;1420753;92;21408;-81
2022/09/09 19:51:16;;;;;;;7.85;6.22;;;;;;;19.33;98.46;100172.53;1365165;91;20259;-80
2022/09/09 19:53:47;;;;;;;9.10;6.30;;;;;;;19.35;98.12;100172.63;1344531;92;21549;-81
2022/09/09 19:56:15;;;;;;;8.98;6.42;;;;;;;19.33;97.90;100164.00;1488427;91;22116;-82
2022/09/09 19:58:43;;;;;;;7.45;6.22;;;;;;;19.29;97.68;100162.75;1339411;91;22555;-81
2022/09/09 20:01:22;;;;;;;9.10;6.85;;;;;;;19.25;97.44;100164.22;1339199;91;21537;-81
2022/09/09 20:03:51;;;;;;;7.78;6.05;;;;;;;19.18;97.60;100158.03;1483807;91;21357;-80
2022/09/09 20:06:29;;;;;;;8.03;5.90;;;;;;;19.12;98.01;100166.92;1474661;92;21290;-80
2022/09/09 20:08:53;;;;;;;7.08;5.85;;;;;;;19.04;99.46;100167.14;1338694;92;21581;-81
2022/09/09 20:11:22;;;;;;;12.10;6.92;;;;;;;18.98;99.91;100171.48;1345352;92;21393;-81
2022/09/09 20:13:48;;;;;;;6.08;5.40;;;;;;;18.90;100.00;100166.33;1339426;91;21379;-79
2022/09/09 20:16:21;;;;;;;6.50;5.90;;;;;;;18.85;100.00;100164.30;1340883;91;21400;-82
2022/09/09 20:18:55;;;;;;;10.93;6.55;;;;;;;18.83;100.00;100159.65;1488436;91;21364;-80
2022/09/09 20:21:26;;;;;;;8.83;6.17;;;;;;;18.83;100.00;100156.97;1482512;91;22333;-81
2022/09/09 20:23:54;;;;;;;7.92;6.72;;;;;;;18.83;100.00;100158.30;1488458;92;21364;-81
2022/09/09 20:26:24;;;;;;;8.25;6.47;;;;;;;18.80;100.00;100151.20;1339492;92;21379;-81
2022/09/09 20:28:52;;;;;;;10.98;5.50;;;;;;;18.76;100.00;100151.30;1337045;94;22415;-80
2022/09/09 20:31:22;;;;;;;10.93;6.75;;;;;;;18.73;100.00;100149.84;1344838;91;22962;-82
2022/09/09 20:33:49;;;;;;;9.00;6.05;;;;;;;18.72;100.00;100152.20;1337534;92;21521;-80
2022/09/09 20:36:20;;;;;;;9.25;6.28;;;;;;;18.70;100.00;100155.59;1340659;91;22407;-81
2022/09/09 20:38:52;;;;;;;;;;;;;;;18.70;100.00;100151.58;1484868;91;21328;-80
2022/09/09 20:41:21;;;;;;;9.98;6.45;;;;;;;18.66;100.00;100150.35;1332976;93;20331;-79
2022/09/09 20:44:02;;;;;;;9.63;6.03;;;;;;;18.63;100.00;100149.43;1315390;94;21392;-81
2022/09/09 20:46:32;;;;;;;9.15;6.17;;;;;;;18.62;100.00;100157.17;1470968;93;21388;-80
2022/09/09 20:48:59;;;;;;;6.60;6.03;;;;;;;18.61;100.00;100156.84;1331306;93;22350;-80
2022/09/09 20:51:26;;;;;;;6.35;5.75;;;;;;;18.60;100.00;100159.23;1345375;93;21395;-81
2022/09/09 20:54:02;;;;;;;6.55;5.97;;;;;;;18.61;100.00;100155.50;1480563;93;21388;-81
2022/09/09 20:56:38;;;;;;;8.88;5.58;;;;;;;18.61;100.00;100146.94;1453180;95;21974;-81
2022/09/09 20:59:13;;;;;;;10.30;6.12;;;;;;;18.63;100.00;100151.59;1483103;91;22073;-76
2022/09/09 21:01:40;;;;;;;8.35;5.30;;;;;;;18.63;100.00;100140.05;1502513;91;22387;-76
2022/09/09 21:04:08;;;;;;;7.20;5.58;;;;;;;18.60;100.00;100141.80;1352885;91;21327;-76
2022/09/09 21:06:35;;;;;;;5.75;5.15;;;;;;;18.57;100.00;100139.54;1357290;91;21402;-76
2022/09/09 21:09:01;;;;;;;6.28;5.75;;;;;;;18.54;100.00;100139.95;1354077;91;21401;-76
2022/09/09 21:11:27;;;;;;;8.83;6.67;;;;;;;18.52;100.00;100136.65;1410457;91;22421;-76
2022/09/09 21:13:55;;;;;;;8.05;6.40;;;;;;;18.49;100.00;100142.72;1424471;91;21482;-77
2022/09/09 21:16:21;;;;;;;8.90;7.33;;;;;;;18.45;100.00;100140.68;1429277;91;21460;-76
2022/09/09 21:18:49;;;;;;;8.87;7.93;;;;;;;18.37;100.00;100138.20;1425597;91;21446;-76
2022/09/09 21:21:18;;;;;;;7.17;6.47;;;;;;;18.29;100.00;100137.88;1421351;91;21474;-77
2022/09/09 21:23:44;;;;;;;7.60;6.17;;;;;;;18.26;100.00;100131.59;1426944;91;22569;-76
2022/09/09 21:26:10;;;;;;;9.30;7.63;;;;;;;18.25;100.00;100132.11;1432443;91;21630;-76
2022/09/09 21:28:37;;;;;;;9.77;7.03;;;;;;;18.22;100.00;100127.69;1423531;91;22385;-76
2022/09/09 21:31:04;;;;;;;6.67;6.00;;;;;;;18.20;100.00;100125.20;1423104;91;21630;-77
2022/09/09 21:33:33;;;;;;;6.93;6.27;;;;;;;18.20;100.00;100134.57;1425555;91;21453;-76
2022/09/09 21:36:05;;;;;;;7.78;6.85;;;;;;;18.17;100.00;100119.43;1425627;91;21549;-77
2022/09/09 21:38:32;;;;;;;8.53;7.00;;;;;;;18.15;100.00;100122.82;1425255;91;22481;-76
2022/09/09 21:41:05;;;;;;;7.80;6.57;;;;;;;18.13;100.00;100120.88;1409181;91;21452;-77
2022/09/09 21:43:32;;;;;;;9.43;6.80;;;;;;;18.14;100.00;100113.97;1432853;91;21483;-77
2022/09/09 21:46:02;;;;;;;9.07;6.23;;;;;;;18.13;100.00;100104.81;1428790;91;21439;-77
2022/09/09 21:48:27;;;;;;;6.43;5.80;;;;;;;18.08;100.00;100103.26;1423561;91;21459;-78
2022/09/09 21:50:54;;;;;;;7.80;6.17;;;;;;;18.02;100.00;100101.70;1430878;91;21438;-78
2022/09/09 21:53:20;;;;;;;7.60;6.13;;;;;;;18.01;100.00;100100.06;1435325;91;21497;-77
2022/09/09 21:55:48;;;;;;;6.57;5.83;;;;;;;18.00;100.00;100097.05;1427024;91;21459;-78
2022/09/09 21:58:17;;;;;;;7.40;6.67;;;;;;;18.00;100.00;100099.73;1421335;91;21431;-77
2022/09/09 22:00:46;;;;;;;6.13;5.53;;;;;;;18.02;100.00;100100.36;1420545;91;21579;-77
2022/09/09 22:03:14;;;;;;;12.63;6.17;;;;;;;18.00;100.00;100101.59;1423204;91;22311;-77
2022/09/09 22:05:43;;;;;;;11.50;7.40;;;;;;;17.97;100.00;100099.32;1416892;91;21445;-77
2022/09/09 22:08:13;;;;;;;10.73;7.47;;;;;;;17.96;100.00;100099.02;1424589;91;21503;-77
2022/09/09 22:10:45;;;;;;;7.75;7.00;;;;;;;17.95;100.00;100092.85;1429361;91;22101;-75
2022/09/09 22:13:14;;;;;;;7.60;6.73;;;;;;;17.96;100.00;100093.15;1425368;90;21435;-76
2022/09/09 22:15:43;;;;;;;7.43;6.63;;;;;;;17.97;100.00;100093.97;1423227;90;21498;-75
2022/09/09 22:18:11;;;;;;;7.03;6.40;;;;;;;17.98;100.00;100093.78;1421823;91;22407;-75
2022/09/09 22:20:44;;;;;;;8.13;6.07;;;;;;;17.98;100.00;100089.77;1426552;91;21548;-76
2022/09/09 22:23:11;;;;;;;6.83;6.03;;;;;;;17.97;100.00;100082.73;1424799;91;22452;-76
2022/09/09 22:25:39;;;;;;;8.90;6.23;;;;;;;17.92;100.00;100084.37;1424358;90;21416;-76
2022/09/09 22:28:07;;;;;;;10.70;6.70;;;;;;;17.91;100.00;100083.56;1422985;90;21458;-77
2022/09/09 22:30:34;;;;;;;7.27;6.57;;;;;;;17.95;100.00;100090.17;1419095;91;21540;-77
2022/09/09 22:33:01;;;;;;;7.13;6.37;;;;;;;18.00;100.00;100097.58;1427183;91;21489;-79
2022/09/09 22:35:27;;;;;;;7.33;5.77;;;;;;;18.01;100.00;100095.20;1420783;91;21438;-79
2022/09/09 22:37:54;;;;;;;7.33;6.63;;;;;;;17.98;100.00;100096.45;1424528;91;22374;-76
2022/09/09 22:40:22;;;;;;;7.63;6.57;;;;;;;17.95;100.00;100095.53;1387133;93;22500;-76
2022/09/09 22:42:48;;;;;;;7.73;7.03;;;;;;;17.96;100.00;100111.07;1372418;93;22381;-76
2022/09/09 22:45:14;;;;;;;6.57;5.97;;;;;;;17.96;100.00;100106.53;1417626;91;21570;-76
2022/09/09 22:47:41;;;;;;;6.10;5.50;;;;;;;17.91;100.00;100100.14;1421243;91;22287;-76
2022/09/09 22:50:09;;;;;;;8.13;7.30;;;;;;;17.89;100.00;100104.34;1433474;91;21482;-76
2022/09/09 22:52:35;;;;;;;8.20;5.60;;;;;;;17.89;100.00;100089.62;1425464;91;21504;-76
2022/09/09 22:55:02;;;;;;;15.03;5.97;;;;;;;17.88;100.00;100084.48;1426973;90;21512;-76
2022/09/09 22:57:29;;;;;;;9.77;6.97;;;;;;;17.86;100.00;100082.00;1424266;91;21490;-76
2022/09/09 22:59:55;;;;;;;8.27;7.47;;;;;;;17.78;100.00;100079.02;1390651;91;21474;-76
2022/09/09 23:02:22;;;;;;;8.00;6.53;;;;;;;17.69;100.00;100084.72;1418596;91;21474;-76
2022/09/09 23:04:48;;;;;;;7.73;6.43;;;;;;;17.60;100.00;100079.55;1426017;91;21621;-76
2022/09/09 23:07:19;;;;;;;7.63;6.70;;;;;;;17.56;100.00;100080.98;1425870;91;22102;-75
2022/09/09 23:09:43;;;;;;;10.23;7.03;;;;;;;17.56;100.00;100076.97;1420562;91;21663;-77
2022/09/09 23:12:09;;;;;;;7.87;7.07;;;;;;;17.60;100.00;100074.19;1426291;91;21460;-76
2022/09/09 23:14:35;;;;;;;7.63;5.97;;;;;;;17.64;100.00;100071.14;1422838;91;21622;-78
2022/09/09 23:17:02;;;;;;;9.37;6.60;;;;;;;17.70;100.00;100074.34;1405464;91;21460;-78
2022/09/09 23:19:28;;;;;;;12.07;6.40;;;;;;;17.72;100.00;100063.75;1425836;91;23808;-78
2022/09/09 23:21:54;;;;;;;12.03;7.13;;;;;;;17.76;100.00;100057.47;1422432;91;21655;-78
2022/09/09 23:24:21;;;;;;;8.60;6.77;;;;;;;17.78;100.00;100050.06;1420121;91;21578;-78
2022/09/09 23:26:47;;;;;;;12.67;7.37;;;;;;;17.79;100.00;100061.10;1429932;91;21604;-78
2022/09/09 23:29:14;;;;;;;7.50;6.70;;;;;;;17.85;100.00;100072.33;1425047;91;21949;-78
2022/09/09 23:31:43;;;;;;;8.23;7.40;;;;;;;17.90;100.00;100067.20;1414086;91;22332;-78
2022/09/09 23:34:11;;;;;;;10.15;7.17;;;;;;;17.92;100.00;100062.44;1425076;91;21489;-77
2022/09/09 23:36:38;;;;;;;11.10;7.83;;;;;;;17.92;100.00;100066.98;1422568;91;22442;-77
2022/09/09 23:39:06;;;;;;;11.13;8.20;;;;;;;17.90;100.00;100069.05;1426678;91;21689;-78
2022/09/09 23:41:34;;;;;;;10.47;7.20;;;;;;;17.89;100.00;100072.74;1421070;91;21623;-77
2022/09/09 23:44:01;;;;;;;10.07;8.50;;;;;;;17.93;100.00;100069.46;1424264;91;22412;-77
2022/09/09 23:46:30;;;;;;;9.97;8.17;;;;;;;17.94;100.00;100067.61;1422232;91;22141;-76
2022/09/09 23:48:58;;;;;;;14.00;8.57;;;;;;;17.93;100.00;100061.44;1426552;91;21556;-76
2022/09/09 23:51:29;;;;;;;9.53;8.53;;;;;;;17.92;100.00;100053.07;1428154;91;21621;-76
2022/09/09 23:53:59;;;;;;;8.65;7.45;;;;;;;17.91;100.00;100043.92;1434112;90;21677;-76
2022/09/09 23:56:30;;;;;;;9.15;7.83;;;;;;;17.94;100.00;100045.66;1419960;91;22372;-76
2022/09/09 23:58:56;;;;;;;10.17;7.77;;;;;;;17.96;100.00;100044.95;1427677;91;21577;-76
